sensor_id;sensor_type;location;lat;lon;timestamp;temperature;humidity
15343;DHT22;7771;48.478;8.936;2024-01-16T00:01:58;1.60;99.90
15343;DHT22;7771;48.478;8.936;2024-01-16T00:04:25;1.60;99.90
15343;DHT22;7771;48.478;8.936;2024-01-16T00:06:52;1.70;99.90
15343;DHT22;7771;48.478;8.936;2024-01-16T00:09:19;1.70;99.90
15343;DHT22;7771;48.478;8.936;2024-01-16T00:11:46;1.70;99.90
15343;DHT22;7771;48.478;8.936;2024-01-16T00:14:14;1.70;99.90
15343;DHT22;7771;48.478;8.936;2024-01-16T00:19:10;1.70;99.90
15343;DHT22;7771;48.478;8.936;2024-01-16T00:21:39;1.70;99.90
15343;DHT22;7771;48.478;8.936;2024-01-16T00:24:06;1.70;99.90
15343;DHT22;7771;48.478;8.936;2024-01-16T00:26:32;1.80;99.90
15343;DHT22;7771;48.478;8.936;2024-01-16T00:29:00;1.70;99.90
15343;DHT22;7771;48.478;8.936;2024-01-16T00:31:26;1.70;99.90
15343;DHT22;7771;48.478;8.936;2024-01-16T00:33:53;1.70;99.90
15343;DHT22;7771;48.478;8.936;2024-01-16T00:36:20;1.60;99.90
15343;DHT22;7771;48.478;8.936;2024-01-16T00:38:46;1.60;99.90
15343;DHT22;7771;48.478;8.936;2024-01-16T00:41:14;1.70;99.90
15343;DHT22;7771;48.478;8.936;2024-01-16T00:43:42;1.70;99.90
15343;DHT22;7771;48.478;8.936;2024-01-16T00:46:08;1.60;99.90
15343;DHT22;7771;48.478;8.936;2024-01-16T00:48:35;1.60;99.90
15343;DHT22;7771;48.478;8.936;2024-01-16T00:51:02;1.60;99.90
15343;DHT22;7771;48.478;8.936;2024-01-16T00:53:29;1.60;99.90
15343;DHT22;7771;48.478;8.936;2024-01-16T00:55:57;1.60;99.90
15343;DHT22;7771;48.478;8.936;2024-01-16T00:58:23;1.70;99.90
15343;DHT22;7771;48.478;8.936;2024-01-16T01:00:51;1.70;99.90
15343;DHT22;7771;48.478;8.936;2024-01-16T01:03:17;1.70;99.90
15343;DHT22;7771;48.478;8.936;2024-01-16T01:05:45;1.70;99.90
15343;DHT22;7771;48.478;8.936;2024-01-16T01:08:11;1.60;99.90
15343;DHT22;7771;48.478;8.936;2024-01-16T01:10:39;1.70;99.90
15343;DHT22;7771;48.478;8.936;2024-01-16T01:13:07;1.70;99.90
15343;DHT22;7771;48.478;8.936;2024-01-16T01:15:33;1.70;99.90
15343;DHT22;7771;48.478;8.936;2024-01-16T01:20:31;1.70;99.90
15343;DHT22;7771;48.478;8.936;2024-01-16T01:22:58;1.80;99.90
15343;DHT22;7771;48.478;8.936;2024-01-16T01:25:25;1.70;99.90
15343;DHT22;7771;48.478;8.936;2024-01-16T01:30:20;1.70;99.90
15343;DHT22;7771;48.478;8.936;2024-01-16T01:32:47;1.70;99.90
15343;DHT22;7771;48.478;8.936;2024-01-16T01:35:16;1.70;99.90
15343;DHT22;7771;48.478;8.936;2024-01-16T01:37:42;1.70;99.90
15343;DHT22;7771;48.478;8.936;2024-01-16T01:40:10;1.70;99.90
15343;DHT22;7771;48.478;8.936;2024-01-16T01:42:36;1.70;99.90
15343;DHT22;7771;48.478;8.936;2024-01-16T01:45:05;1.70;99.90
15343;DHT22;7771;48.478;8.936;2024-01-16T01:47:32;1.60;99.90
15343;DHT22;7771;48.478;8.936;2024-01-16T01:49:59;1.60;99.90
15343;DHT22;7771;48.478;8.936;2024-01-16T01:52:26;1.60;99.90
15343;DHT22;7771;48.478;8.936;2024-01-16T01:54:54;1.60;99.90
15343;DHT22;7771;48.478;8.936;2024-01-16T01:57:21;1.70;99.90
15343;DHT22;7771;48.478;8.936;2024-01-16T01:59:49;1.60;99.90
15343;DHT22;7771;48.478;8.936;2024-01-16T02:02:16;1.60;99.90
15343;DHT22;7771;48.478;8.936;2024-01-16T02:04:44;1.60;99.90
15343;DHT22;7771;48.478;8.936;2024-01-16T02:07:11;1.60;99.90
15343;DHT22;7771;48.478;8.936;2024-01-16T02:09:38;1.60;99.90
15343;DHT22;7771;48.478;8.936;2024-01-16T02:12:06;1.50;99.90
15343;DHT22;7771;48.478;8.936;2024-01-16T02:14:32;1.60;99.90
15343;DHT22;7771;48.478;8.936;2024-01-16T02:16:59;1.50;99.90
15343;DHT22;7771;48.478;8.936;2024-01-16T02:19:27;1.40;99.90
15343;DHT22;7771;48.478;8.936;2024-01-16T02:21:56;1.40;99.90
15343;DHT22;7771;48.478;8.936;2024-01-16T02:26:49;1.40;99.90
15343;DHT22;7771;48.478;8.936;2024-01-16T02:29:17;1.30;99.90
15343;DHT22;7771;48.478;8.936;2024-01-16T02:31:45;1.30;99.90
15343;DHT22;7771;48.478;8.936;2024-01-16T02:34:11;1.30;99.90
15343;DHT22;7771;48.478;8.936;2024-01-16T02:36:39;1.30;99.90
15343;DHT22;7771;48.478;8.936;2024-01-16T02:39:05;1.20;99.90
15343;DHT22;7771;48.478;8.936;2024-01-16T02:41:33;1.20;99.90
15343;DHT22;7771;48.478;8.936;2024-01-16T02:44:00;1.20;99.90
15343;DHT22;7771;48.478;8.936;2024-01-16T02:48:56;1.10;99.90
15343;DHT22;7771;48.478;8.936;2024-01-16T02:51:22;1.10;99.90
15343;DHT22;7771;48.478;8.936;2024-01-16T02:53:49;1.00;99.90
15343;DHT22;7771;48.478;8.936;2024-01-16T02:56:16;1.00;99.90
15343;DHT22;7771;48.478;8.936;2024-01-16T02:58:44;1.00;99.90
15343;DHT22;7771;48.478;8.936;2024-01-16T03:01:11;1.00;99.90
15343;DHT22;7771;48.478;8.936;2024-01-16T03:03:38;0.90;99.90
15343;DHT22;7771;48.478;8.936;2024-01-16T03:06:05;0.80;99.90
15343;DHT22;7771;48.478;8.936;2024-01-16T03:08:32;0.80;99.90
15343;DHT22;7771;48.478;8.936;2024-01-16T03:10:59;0.70;99.90
15343;DHT22;7771;48.478;8.936;2024-01-16T03:13:26;0.70;99.90
15343;DHT22;7771;48.478;8.936;2024-01-16T03:15:53;0.60;99.90
15343;DHT22;7771;48.478;8.936;2024-01-16T03:18:20;0.60;99.90
15343;DHT22;7771;48.478;8.936;2024-01-16T03:20:47;0.50;99.90
15343;DHT22;7771;48.478;8.936;2024-01-16T03:23:14;0.60;99.90
15343;DHT22;7771;48.478;8.936;2024-01-16T03:25:41;0.50;99.90
15343;DHT22;7771;48.478;8.936;2024-01-16T03:30:35;0.40;99.90
15343;DHT22;7771;48.478;8.936;2024-01-16T03:33:03;0.40;99.90
15343;DHT22;7771;48.478;8.936;2024-01-16T03:35:30;0.40;99.90
15343;DHT22;7771;48.478;8.936;2024-01-16T03:37:59;0.30;99.90
15343;DHT22;7771;48.478;8.936;2024-01-16T03:40:25;0.30;99.90
15343;DHT22;7771;48.478;8.936;2024-01-16T03:42:52;0.20;99.90
15343;DHT22;7771;48.478;8.936;2024-01-16T03:45:18;0.20;99.90
15343;DHT22;7771;48.478;8.936;2024-01-16T03:47:46;0.20;99.90
15343;DHT22;7771;48.478;8.936;2024-01-16T03:50:13;0.20;99.90
15343;DHT22;7771;48.478;8.936;2024-01-16T03:55:08;0.10;99.90
15343;DHT22;7771;48.478;8.936;2024-01-16T03:57:35;0.10;99.90
15343;DHT22;7771;48.478;8.936;2024-01-16T04:00:02;0.10;99.90
15343;DHT22;7771;48.478;8.936;2024-01-16T04:02:29;0.00;99.90
15343;DHT22;7771;48.478;8.936;2024-01-16T04:04:55;0.00;99.90
15343;DHT22;7771;48.478;8.936;2024-01-16T04:07:23;-0.10;99.90
15343;DHT22;7771;48.478;8.936;2024-01-16T04:09:50;-0.10;99.90
15343;DHT22;7771;48.478;8.936;2024-01-16T04:14:45;-0.10;99.90
15343;DHT22;7771;48.478;8.936;2024-01-16T04:17:12;-0.20;99.90
15343;DHT22;7771;48.478;8.936;2024-01-16T04:19:39;-0.20;99.90
15343;DHT22;7771;48.478;8.936;2024-01-16T04:22:06;-0.20;99.90
15343;DHT22;7771;48.478;8.936;2024-01-16T04:24:34;-0.20;99.90
15343;DHT22;7771;48.478;8.936;2024-01-16T04:27:00;-0.20;99.90
15343;DHT22;7771;48.478;8.936;2024-01-16T04:29:28;-0.30;99.90
15343;DHT22;7771;48.478;8.936;2024-01-16T04:31:56;-0.30;99.90
15343;DHT22;7771;48.478;8.936;2024-01-16T04:34:23;-0.30;99.90
15343;DHT22;7771;48.478;8.936;2024-01-16T04:36:50;-0.30;99.90
15343;DHT22;7771;48.478;8.936;2024-01-16T04:39:17;-0.40;99.90
15343;DHT22;7771;48.478;8.936;2024-01-16T04:41:44;-0.40;99.90
15343;DHT22;7771;48.478;8.936;2024-01-16T04:44:12;-0.50;99.90
15343;DHT22;7771;48.478;8.936;2024-01-16T04:46:39;-0.40;99.90
15343;DHT22;7771;48.478;8.936;2024-01-16T04:49:07;-0.50;99.90
15343;DHT22;7771;48.478;8.936;2024-01-16T04:51:34;-0.50;99.90
15343;DHT22;7771;48.478;8.936;2024-01-16T04:54:02;-0.50;99.90
15343;DHT22;7771;48.478;8.936;2024-01-16T04:56:29;-0.60;99.90
15343;DHT22;7771;48.478;8.936;2024-01-16T04:58:57;-0.70;99.90
15343;DHT22;7771;48.478;8.936;2024-01-16T05:03:53;-0.80;99.90
15343;DHT22;7771;48.478;8.936;2024-01-16T05:06:21;-0.70;99.90
15343;DHT22;7771;48.478;8.936;2024-01-16T05:08:47;-0.70;99.90
15343;DHT22;7771;48.478;8.936;2024-01-16T05:11:15;-0.80;99.90
15343;DHT22;7771;48.478;8.936;2024-01-16T05:13:43;-0.90;99.90
15343;DHT22;7771;48.478;8.936;2024-01-16T05:16:09;-0.90;99.90
15343;DHT22;7771;48.478;8.936;2024-01-16T05:21:05;-1.00;99.90
15343;DHT22;7771;48.478;8.936;2024-01-16T05:23:32;-1.00;99.90
15343;DHT22;7771;48.478;8.936;2024-01-16T05:25:59;-1.10;99.90
15343;DHT22;7771;48.478;8.936;2024-01-16T05:28:26;-1.10;99.90
15343;DHT22;7771;48.478;8.936;2024-01-16T05:30:53;-1.10;99.90
15343;DHT22;7771;48.478;8.936;2024-01-16T05:33:20;-1.00;99.90
15343;DHT22;7771;48.478;8.936;2024-01-16T05:35:47;-1.00;99.90
15343;DHT22;7771;48.478;8.936;2024-01-16T05:38:14;-1.10;99.90
15343;DHT22;7771;48.478;8.936;2024-01-16T05:43:10;-1.20;99.90
15343;DHT22;7771;48.478;8.936;2024-01-16T05:45:36;-1.30;99.90
15343;DHT22;7771;48.478;8.936;2024-01-16T05:48:04;-1.30;99.90
15343;DHT22;7771;48.478;8.936;2024-01-16T05:50:32;-1.40;99.90
15343;DHT22;7771;48.478;8.936;2024-01-16T05:52:58;-1.30;99.90
15343;DHT22;7771;48.478;8.936;2024-01-16T05:55:26;-1.40;99.90
15343;DHT22;7771;48.478;8.936;2024-01-16T05:57:52;-1.40;99.90
15343;DHT22;7771;48.478;8.936;2024-01-16T06:00:19;-1.40;99.90
15343;DHT22;7771;48.478;8.936;2024-01-16T06:02:46;-1.40;99.90
15343;DHT22;7771;48.478;8.936;2024-01-16T06:05:12;-1.50;99.90
15343;DHT22;7771;48.478;8.936;2024-01-16T06:07:39;-1.50;99.90
15343;DHT22;7771;48.478;8.936;2024-01-16T06:10:07;-1.50;99.90
15343;DHT22;7771;48.478;8.936;2024-01-16T06:12:35;-1.50;99.90
15343;DHT22;7771;48.478;8.936;2024-01-16T06:15:02;-1.50;99.90
15343;DHT22;7771;48.478;8.936;2024-01-16T06:17:31;-1.60;99.90
15343;DHT22;7771;48.478;8.936;2024-01-16T06:19:57;-1.60;99.90
15343;DHT22;7771;48.478;8.936;2024-01-16T06:22:24;-1.70;99.90
15343;DHT22;7771;48.478;8.936;2024-01-16T06:24:51;-1.70;99.90
15343;DHT22;7771;48.478;8.936;2024-01-16T06:27:19;-1.90;99.90
15343;DHT22;7771;48.478;8.936;2024-01-16T06:29:48;-1.90;99.90
15343;DHT22;7771;48.478;8.936;2024-01-16T06:32:15;-1.90;99.90
15343;DHT22;7771;48.478;8.936;2024-01-16T06:34:42;-1.90;99.90
15343;DHT22;7771;48.478;8.936;2024-01-16T06:37:08;-1.90;99.90
15343;DHT22;7771;48.478;8.936;2024-01-16T06:39:36;-1.90;99.90
15343;DHT22;7771;48.478;8.936;2024-01-16T06:42:02;-1.90;99.90
15343;DHT22;7771;48.478;8.936;2024-01-16T06:44:28;-1.90;99.90
15343;DHT22;7771;48.478;8.936;2024-01-16T06:46:55;-1.80;99.90
15343;DHT22;7771;48.478;8.936;2024-01-16T06:49:23;-1.80;99.90
15343;DHT22;7771;48.478;8.936;2024-01-16T06:51:50;-1.80;99.90
15343;DHT22;7771;48.478;8.936;2024-01-16T06:54:17;-1.80;99.90
15343;DHT22;7771;48.478;8.936;2024-01-16T06:59:12;-1.80;99.90
15343;DHT22;7771;48.478;8.936;2024-01-16T07:01:40;-1.90;99.90
15343;DHT22;7771;48.478;8.936;2024-01-16T07:04:08;-1.90;99.90
15343;DHT22;7771;48.478;8.936;2024-01-16T07:06:34;-1.90;99.90
15343;DHT22;7771;48.478;8.936;2024-01-16T07:09:03;-2.00;99.90
15343;DHT22;7771;48.478;8.936;2024-01-16T07:11:29;-2.00;99.90
15343;DHT22;7771;48.478;8.936;2024-01-16T07:16:25;-2.00;99.90
15343;DHT22;7771;48.478;8.936;2024-01-16T07:18:52;-2.00;99.90
15343;DHT22;7771;48.478;8.936;2024-01-16T07:21:20;-2.10;99.90
15343;DHT22;7771;48.478;8.936;2024-01-16T07:23:48;-2.10;99.90
15343;DHT22;7771;48.478;8.936;2024-01-16T07:26:15;-2.00;99.90
15343;DHT22;7771;48.478;8.936;2024-01-16T07:31:10;-2.20;99.90
15343;DHT22;7771;48.478;8.936;2024-01-16T07:41:03;-2.00;99.90
15343;DHT22;7771;48.478;8.936;2024-01-16T07:43:29;-2.00;99.90
15343;DHT22;7771;48.478;8.936;2024-01-16T07:45:57;-2.00;99.90
15343;DHT22;7771;48.478;8.936;2024-01-16T07:48:23;-2.10;99.90
15343;DHT22;7771;48.478;8.936;2024-01-16T07:53:19;-2.10;99.90
15343;DHT22;7771;48.478;8.936;2024-01-16T07:58:15;-1.90;99.90
15343;DHT22;7771;48.478;8.936;2024-01-16T08:00:41;-1.90;99.90
15343;DHT22;7771;48.478;8.936;2024-01-16T08:03:08;-1.90;99.90
15343;DHT22;7771;48.478;8.936;2024-01-16T08:05:37;-1.80;99.90
15343;DHT22;7771;48.478;8.936;2024-01-16T08:08:08;-1.80;99.90
15343;DHT22;7771;48.478;8.936;2024-01-16T08:10:32;-1.70;99.90
15343;DHT22;7771;48.478;8.936;2024-01-16T08:13:00;-1.70;99.90
15343;DHT22;7771;48.478;8.936;2024-01-16T08:15:28;-1.70;99.90
15343;DHT22;7771;48.478;8.936;2024-01-16T08:17:55;-1.60;99.90
15343;DHT22;7771;48.478;8.936;2024-01-16T08:22:50;-1.50;99.90
15343;DHT22;7771;48.478;8.936;2024-01-16T08:25:18;-1.40;99.90
15343;DHT22;7771;48.478;8.936;2024-01-16T08:30:14;-1.20;99.90
15343;DHT22;7771;48.478;8.936;2024-01-16T08:37:56;-0.90;99.90
15343;DHT22;7771;48.478;8.936;2024-01-16T08:40:23;-0.80;99.90
15343;DHT22;7771;48.478;8.936;2024-01-16T08:42:50;-0.80;99.90
15343;DHT22;7771;48.478;8.936;2024-01-16T08:45:17;-0.70;99.90
15343;DHT22;7771;48.478;8.936;2024-01-16T08:47:44;-0.60;99.90
15343;DHT22;7771;48.478;8.936;2024-01-16T08:50:11;-0.50;99.90
15343;DHT22;7771;48.478;8.936;2024-01-16T08:52:38;-0.40;99.90
15343;DHT22;7771;48.478;8.936;2024-01-16T08:55:05;-0.30;99.90
15343;DHT22;7771;48.478;8.936;2024-01-16T08:57:32;-0.30;99.90
15343;DHT22;7771;48.478;8.936;2024-01-16T09:00:00;-0.20;99.90
15343;DHT22;7771;48.478;8.936;2024-01-16T09:02:27;-0.10;99.90
15343;DHT22;7771;48.478;8.936;2024-01-16T09:07:22;0.00;99.90
15343;DHT22;7771;48.478;8.936;2024-01-16T09:09:51;0.00;99.90
15343;DHT22;7771;48.478;8.936;2024-01-16T09:12:17;0.00;99.90
15343;DHT22;7771;48.478;8.936;2024-01-16T09:14:45;0.00;99.90
15343;DHT22;7771;48.478;8.936;2024-01-16T09:17:12;0.10;99.90
15343;DHT22;7771;48.478;8.936;2024-01-16T09:19:39;0.10;99.90
15343;DHT22;7771;48.478;8.936;2024-01-16T09:22:05;0.20;99.90
15343;DHT22;7771;48.478;8.936;2024-01-16T09:24:32;0.20;99.90
15343;DHT22;7771;48.478;8.936;2024-01-16T09:26:59;0.20;99.90
15343;DHT22;7771;48.478;8.936;2024-01-16T09:29:26;0.20;99.90
15343;DHT22;7771;48.478;8.936;2024-01-16T09:31:52;0.20;99.90
15343;DHT22;7771;48.478;8.936;2024-01-16T09:34:20;0.20;99.90
15343;DHT22;7771;48.478;8.936;2024-01-16T09:39:15;0.40;99.90
15343;DHT22;7771;48.478;8.936;2024-01-16T09:44:12;0.50;99.90
15343;DHT22;7771;48.478;8.936;2024-01-16T09:46:40;0.70;99.90
15343;DHT22;7771;48.478;8.936;2024-01-16T09:49:06;0.80;99.90
15343;DHT22;7771;48.478;8.936;2024-01-16T09:51:34;0.90;99.90
15343;DHT22;7771;48.478;8.936;2024-01-16T09:54:02;0.90;99.90
15343;DHT22;7771;48.478;8.936;2024-01-16T10:01:26;1.10;99.90
15343;DHT22;7771;48.478;8.936;2024-01-16T10:06:20;1.30;99.90
15343;DHT22;7771;48.478;8.936;2024-01-16T10:08:46;1.40;99.90
15343;DHT22;7771;48.478;8.936;2024-01-16T10:11:14;1.40;99.90
15343;DHT22;7771;48.478;8.936;2024-01-16T10:13:41;1.40;99.90
15343;DHT22;7771;48.478;8.936;2024-01-16T10:16:08;1.50;99.90
15343;DHT22;7771;48.478;8.936;2024-01-16T10:18:35;1.50;99.90
15343;DHT22;7771;48.478;8.936;2024-01-16T10:23:32;1.50;99.90
15343;DHT22;7771;48.478;8.936;2024-01-16T10:28:31;1.50;99.90
15343;DHT22;7771;48.478;8.936;2024-01-16T10:31:03;1.60;99.90
15343;DHT22;7771;48.478;8.936;2024-01-16T10:33:30;1.70;99.90
15343;DHT22;7771;48.478;8.936;2024-01-16T10:38:37;1.80;99.90
15343;DHT22;7771;48.478;8.936;2024-01-16T10:41:13;1.90;99.90
15343;DHT22;7771;48.478;8.936;2024-01-16T10:43:40;1.90;99.90
15343;DHT22;7771;48.478;8.936;2024-01-16T10:46:11;2.00;99.90
15343;DHT22;7771;48.478;8.936;2024-01-16T10:48:38;2.10;99.90
15343;DHT22;7771;48.478;8.936;2024-01-16T10:58:29;2.40;99.90
15343;DHT22;7771;48.478;8.936;2024-01-16T11:00:56;2.40;99.90
15343;DHT22;7771;48.478;8.936;2024-01-16T11:03:34;2.40;99.90
15343;DHT22;7771;48.478;8.936;2024-01-16T11:05:57;2.40;99.90
15343;DHT22;7771;48.478;8.936;2024-01-16T11:10:52;2.60;99.90
15343;DHT22;7771;48.478;8.936;2024-01-16T11:13:20;2.60;99.90
15343;DHT22;7771;48.478;8.936;2024-01-16T11:15:47;2.70;99.90
15343;DHT22;7771;48.478;8.936;2024-01-16T11:18:14;2.80;99.90
15343;DHT22;7771;48.478;8.936;2024-01-16T11:20:41;2.90;99.90
15343;DHT22;7771;48.478;8.936;2024-01-16T11:23:07;2.90;99.90
15343;DHT22;7771;48.478;8.936;2024-01-16T11:25:35;3.00;99.90
15343;DHT22;7771;48.478;8.936;2024-01-16T11:28:09;3.00;99.90
15343;DHT22;7771;48.478;8.936;2024-01-16T11:30:36;3.10;99.90
15343;DHT22;7771;48.478;8.936;2024-01-16T11:33:04;3.10;99.90
15343;DHT22;7771;48.478;8.936;2024-01-16T11:35:34;3.10;99.90
15343;DHT22;7771;48.478;8.936;2024-01-16T11:38:14;3.20;99.90
15343;DHT22;7771;48.478;8.936;2024-01-16T11:40:41;3.30;99.90
15343;DHT22;7771;48.478;8.936;2024-01-16T11:43:38;3.30;99.90
15343;DHT22;7771;48.478;8.936;2024-01-16T11:46:06;3.40;99.90
15343;DHT22;7771;48.478;8.936;2024-01-16T11:48:33;3.40;99.90
15343;DHT22;7771;48.478;8.936;2024-01-16T11:51:22;3.40;99.90
15343;DHT22;7771;48.478;8.936;2024-01-16T11:53:34;3.40;99.90
15343;DHT22;7771;48.478;8.936;2024-01-16T12:01:21;3.60;99.90
15343;DHT22;7771;48.478;8.936;2024-01-16T12:04:02;3.60;99.90
15343;DHT22;7771;48.478;8.936;2024-01-16T12:06:29;3.70;99.90
15343;DHT22;7771;48.478;8.936;2024-01-16T12:09:11;3.70;99.90
15343;DHT22;7771;48.478;8.936;2024-01-16T12:11:38;3.70;99.90
15343;DHT22;7771;48.478;8.936;2024-01-16T12:14:04;3.70;99.90
15343;DHT22;7771;48.478;8.936;2024-01-16T12:16:33;3.80;99.90
15343;DHT22;7771;48.478;8.936;2024-01-16T12:21:32;3.90;99.90
15343;DHT22;7771;48.478;8.936;2024-01-16T12:23:59;4.00;99.90
15343;DHT22;7771;48.478;8.936;2024-01-16T12:26:26;4.00;99.90
15343;DHT22;7771;48.478;8.936;2024-01-16T12:33:49;4.00;99.90
15343;DHT22;7771;48.478;8.936;2024-01-16T12:41:12;4.00;99.90
15343;DHT22;7771;48.478;8.936;2024-01-16T12:43:41;4.00;99.90
15343;DHT22;7771;48.478;8.936;2024-01-16T12:46:11;4.00;99.90
15343;DHT22;7771;48.478;8.936;2024-01-16T12:48:35;4.00;99.90
15343;DHT22;7771;48.478;8.936;2024-01-16T12:51:03;3.90;99.90
15343;DHT22;7771;48.478;8.936;2024-01-16T12:53:31;3.90;99.90
15343;DHT22;7771;48.478;8.936;2024-01-16T12:55:59;4.00;99.90
15343;DHT22;7771;48.478;8.936;2024-01-16T12:58:31;3.90;99.90
15343;DHT22;7771;48.478;8.936;2024-01-16T13:00:55;3.90;99.90
15343;DHT22;7771;48.478;8.936;2024-01-16T13:03:25;3.90;99.90
15343;DHT22;7771;48.478;8.936;2024-01-16T13:05:55;3.90;99.90
15343;DHT22;7771;48.478;8.936;2024-01-16T13:08:21;3.90;99.90
15343;DHT22;7771;48.478;8.936;2024-01-16T13:11:02;3.90;99.90
15343;DHT22;7771;48.478;8.936;2024-01-16T13:13:27;3.90;99.90
15343;DHT22;7771;48.478;8.936;2024-01-16T13:15:54;3.90;99.50
15343;DHT22;7771;48.478;8.936;2024-01-16T13:18:22;3.90;99.40
15343;DHT22;7771;48.478;8.936;2024-01-16T13:20:49;3.80;99.50
15343;DHT22;7771;48.478;8.936;2024-01-16T13:23:17;3.80;99.60
15343;DHT22;7771;48.478;8.936;2024-01-16T13:25:46;3.80;99.40
15343;DHT22;7771;48.478;8.936;2024-01-16T13:28:14;3.80;99.20
15343;DHT22;7771;48.478;8.936;2024-01-16T13:30:40;3.70;99.30
15343;DHT22;7771;48.478;8.936;2024-01-16T13:33:08;3.70;99.10
15343;DHT22;7771;48.478;8.936;2024-01-16T13:35:37;3.70;99.20
15343;DHT22;7771;48.478;8.936;2024-01-16T13:38:02;3.70;99.40
15343;DHT22;7771;48.478;8.936;2024-01-16T13:40:30;3.60;99.50
15343;DHT22;7771;48.478;8.936;2024-01-16T13:42:56;3.60;99.60
15343;DHT22;7771;48.478;8.936;2024-01-16T13:50:20;3.70;99.00
15343;DHT22;7771;48.478;8.936;2024-01-16T13:52:48;3.60;99.00
15343;DHT22;7771;48.478;8.936;2024-01-16T13:55:16;3.70;98.90
15343;DHT22;7771;48.478;8.936;2024-01-16T13:57:42;3.60;99.00
15343;DHT22;7771;48.478;8.936;2024-01-16T14:00:11;3.60;99.00
15343;DHT22;7771;48.478;8.936;2024-01-16T14:02:39;3.60;99.10
15343;DHT22;7771;48.478;8.936;2024-01-16T14:07:39;3.50;99.20
15343;DHT22;7771;48.478;8.936;2024-01-16T14:10:07;3.50;99.10
15343;DHT22;7771;48.478;8.936;2024-01-16T14:12:33;3.50;99.10
15343;DHT22;7771;48.478;8.936;2024-01-16T14:17:27;3.50;98.90
15343;DHT22;7771;48.478;8.936;2024-01-16T14:19:54;3.40;99.10
15343;DHT22;7771;48.478;8.936;2024-01-16T14:22:21;3.40;99.20
15343;DHT22;7771;48.478;8.936;2024-01-16T14:24:48;3.40;99.30
15343;DHT22;7771;48.478;8.936;2024-01-16T14:27:15;3.40;99.40
15343;DHT22;7771;48.478;8.936;2024-01-16T14:29:43;3.30;99.40
15343;DHT22;7771;48.478;8.936;2024-01-16T14:34:39;3.40;99.30
15343;DHT22;7771;48.478;8.936;2024-01-16T14:46:58;3.30;99.30
15343;DHT22;7771;48.478;8.936;2024-01-16T14:49:26;3.20;99.30
15343;DHT22;7771;48.478;8.936;2024-01-16T14:54:20;3.20;99.50
15343;DHT22;7771;48.478;8.936;2024-01-16T14:59:15;3.20;99.40
15343;DHT22;7771;48.478;8.936;2024-01-16T15:01:42;3.10;99.50
15343;DHT22;7771;48.478;8.936;2024-01-16T15:06:38;3.10;99.70
15343;DHT22;7771;48.478;8.936;2024-01-16T15:09:05;3.10;99.70
15343;DHT22;7771;48.478;8.936;2024-01-16T15:11:32;3.00;99.80
15343;DHT22;7771;48.478;8.936;2024-01-16T15:18:56;2.90;99.90
15343;DHT22;7771;48.478;8.936;2024-01-16T15:21:23;2.80;99.90
15343;DHT22;7771;48.478;8.936;2024-01-16T15:23:51;2.80;99.90
15343;DHT22;7771;48.478;8.936;2024-01-16T15:26:17;2.80;99.90
15343;DHT22;7771;48.478;8.936;2024-01-16T15:28:44;2.80;99.90
15343;DHT22;7771;48.478;8.936;2024-01-16T15:31:11;2.80;99.90
15343;DHT22;7771;48.478;8.936;2024-01-16T15:33:39;2.80;99.90
15343;DHT22;7771;48.478;8.936;2024-01-16T15:36:06;2.80;99.90
15343;DHT22;7771;48.478;8.936;2024-01-16T15:38:33;2.70;99.90
15343;DHT22;7771;48.478;8.936;2024-01-16T15:41:00;2.60;99.90
15343;DHT22;7771;48.478;8.936;2024-01-16T15:43:27;2.60;99.90
15343;DHT22;7771;48.478;8.936;2024-01-16T15:45:53;2.50;99.90
15343;DHT22;7771;48.478;8.936;2024-01-16T15:48:21;2.50;99.90
15343;DHT22;7771;48.478;8.936;2024-01-16T15:50:48;2.40;99.90
15343;DHT22;7771;48.478;8.936;2024-01-16T15:53:15;2.30;99.90
15343;DHT22;7771;48.478;8.936;2024-01-16T15:55:42;2.40;99.90
15343;DHT22;7771;48.478;8.936;2024-01-16T15:58:09;2.30;99.90
15343;DHT22;7771;48.478;8.936;2024-01-16T16:00:36;2.20;99.90
15343;DHT22;7771;48.478;8.936;2024-01-16T16:05:32;2.20;99.90
15343;DHT22;7771;48.478;8.936;2024-01-16T16:07:58;2.10;99.90
15343;DHT22;7771;48.478;8.936;2024-01-16T16:10:26;2.10;99.90
15343;DHT22;7771;48.478;8.936;2024-01-16T16:15:21;2.00;99.90
15343;DHT22;7771;48.478;8.936;2024-01-16T16:17:48;2.00;99.90
15343;DHT22;7771;48.478;8.936;2024-01-16T16:20:15;1.90;99.90
15343;DHT22;7771;48.478;8.936;2024-01-16T16:22:42;1.90;99.90
15343;DHT22;7771;48.478;8.936;2024-01-16T16:25:08;1.80;99.90
15343;DHT22;7771;48.478;8.936;2024-01-16T16:27:36;1.80;99.90
15343;DHT22;7771;48.478;8.936;2024-01-16T16:30:03;1.70;99.90
15343;DHT22;7771;48.478;8.936;2024-01-16T16:32:30;1.60;99.90
15343;DHT22;7771;48.478;8.936;2024-01-16T16:34:57;1.60;99.90
15343;DHT22;7771;48.478;8.936;2024-01-16T16:37:28;1.60;99.90
15343;DHT22;7771;48.478;8.936;2024-01-16T16:39:55;1.50;99.90
15343;DHT22;7771;48.478;8.936;2024-01-16T16:42:23;1.50;99.90
15343;DHT22;7771;48.478;8.936;2024-01-16T16:44:50;1.40;99.90
15343;DHT22;7771;48.478;8.936;2024-01-16T16:47:17;1.30;99.90
15343;DHT22;7771;48.478;8.936;2024-01-16T16:49:45;1.20;99.90
15343;DHT22;7771;48.478;8.936;2024-01-16T16:52:12;1.10;99.90
15343;DHT22;7771;48.478;8.936;2024-01-16T16:54:39;1.00;99.90
15343;DHT22;7771;48.478;8.936;2024-01-16T16:57:07;1.00;99.90
15343;DHT22;7771;48.478;8.936;2024-01-16T16:59:33;0.90;99.90
15343;DHT22;7771;48.478;8.936;2024-01-16T17:02:01;0.80;99.90
15343;DHT22;7771;48.478;8.936;2024-01-16T17:04:27;0.80;99.90
15343;DHT22;7771;48.478;8.936;2024-01-16T17:06:55;0.70;99.90
15343;DHT22;7771;48.478;8.936;2024-01-16T17:09:23;0.70;99.90
15343;DHT22;7771;48.478;8.936;2024-01-16T17:11:50;0.60;99.90
15343;DHT22;7771;48.478;8.936;2024-01-16T17:14:18;0.50;99.90
15343;DHT22;7771;48.478;8.936;2024-01-16T17:16:46;0.50;99.90
15343;DHT22;7771;48.478;8.936;2024-01-16T17:21:41;0.40;99.90
15343;DHT22;7771;48.478;8.936;2024-01-16T17:24:08;0.40;99.90
15343;DHT22;7771;48.478;8.936;2024-01-16T17:26:35;0.30;99.90
15343;DHT22;7771;48.478;8.936;2024-01-16T17:31:30;0.30;99.90
15343;DHT22;7771;48.478;8.936;2024-01-16T17:33:58;0.20;99.90
15343;DHT22;7771;48.478;8.936;2024-01-16T17:36:25;0.10;99.90
15343;DHT22;7771;48.478;8.936;2024-01-16T17:38:52;0.10;99.90
15343;DHT22;7771;48.478;8.936;2024-01-16T17:41:20;0.00;99.90
15343;DHT22;7771;48.478;8.936;2024-01-16T17:43:48;-0.10;99.90
15343;DHT22;7771;48.478;8.936;2024-01-16T17:46:14;-0.20;99.90
15343;DHT22;7771;48.478;8.936;2024-01-16T17:48:42;-0.20;99.90
15343;DHT22;7771;48.478;8.936;2024-01-16T17:51:08;-0.20;99.90
15343;DHT22;7771;48.478;8.936;2024-01-16T17:53:36;-0.30;99.90
15343;DHT22;7771;48.478;8.936;2024-01-16T17:58:31;-0.30;99.90
15343;DHT22;7771;48.478;8.936;2024-01-16T18:00:58;-0.30;99.90
15343;DHT22;7771;48.478;8.936;2024-01-16T18:03:25;-0.30;99.90
15343;DHT22;7771;48.478;8.936;2024-01-16T18:05:52;-0.40;99.90
15343;DHT22;7771;48.478;8.936;2024-01-16T18:08:19;-0.50;99.90
15343;DHT22;7771;48.478;8.936;2024-01-16T18:10:46;-0.60;99.90
15343;DHT22;7771;48.478;8.936;2024-01-16T18:13:13;-0.60;99.90
15343;DHT22;7771;48.478;8.936;2024-01-16T18:15:41;-0.70;99.90
15343;DHT22;7771;48.478;8.936;2024-01-16T18:18:08;-0.70;99.90
15343;DHT22;7771;48.478;8.936;2024-01-16T18:20:36;-0.70;99.90
15343;DHT22;7771;48.478;8.936;2024-01-16T18:23:03;-0.70;99.90
15343;DHT22;7771;48.478;8.936;2024-01-16T18:25:30;-0.80;99.90
15343;DHT22;7771;48.478;8.936;2024-01-16T18:27:57;-0.80;99.90
15343;DHT22;7771;48.478;8.936;2024-01-16T18:30:25;-0.90;99.90
15343;DHT22;7771;48.478;8.936;2024-01-16T18:32:54;-0.90;99.90